createdAt,value
2018-07-11T00:00:33.118Z,22.63
2018-07-11T00:01:33.032Z,22.63
2018-07-11T00:02:33.056Z,22.63
2018-07-11T00:03:32.863Z,22.63
2018-07-11T00:04:32.761Z,22.61
2018-07-11T00:05:33.052Z,22.63
2018-07-11T00:06:33.004Z,22.62
2018-07-11T00:07:32.943Z,22.62
2018-07-11T00:08:33.295Z,22.62
2018-07-11T00:09:32.987Z,22.62
2018-07-11T00:10:33.115Z,22.62
2018-07-11T00:11:32.990Z,22.63
2018-07-11T00:12:32.980Z,22.63
2018-07-11T00:13:32.825Z,22.63
2018-07-11T00:14:32.956Z,22.62
2018-07-11T00:15:32.926Z,22.62
2018-07-11T00:16:32.945Z,22.61
2018-07-11T00:17:32.913Z,22.61
2018-07-11T00:18:32.921Z,22.62
2018-07-11T00:19:32.927Z,22.61
2018-07-11T00:20:32.882Z,22.59
2018-07-11T00:21:32.868Z,22.61
2018-07-11T00:22:32.817Z,22.61
2018-07-11T00:23:32.913Z,22.59
2018-07-11T00:24:33.207Z,22.62
2018-07-11T00:25:33.012Z,22.62
2018-07-11T00:26:33.062Z,22.61
2018-07-11T00:27:33.044Z,22.6
2018-07-11T00:28:33.021Z,22.61
2018-07-11T00:29:33.026Z,22.6
2018-07-11T00:30:32.948Z,22.61
2018-07-11T00:31:32.981Z,22.61
2018-07-11T00:32:33.016Z,22.6
2018-07-11T00:33:33.087Z,22.6
2018-07-11T00:34:33.025Z,22.6
2018-07-11T00:35:32.966Z,22.59
2018-07-11T00:36:32.963Z,22.59
2018-07-11T00:37:33.264Z,22.59
2018-07-11T00:38:33.060Z,22.6
2018-07-11T00:39:33.030Z,22.6
2018-07-11T00:40:43.044Z,22.59
2018-07-11T00:41:33.035Z,22.59
2018-07-11T00:42:33.085Z,22.59
2018-07-11T00:43:32.877Z,22.59
2018-07-11T00:44:32.908Z,22.59
2018-07-11T00:45:32.931Z,22.59
2018-07-11T00:46:33.142Z,22.59
2018-07-11T00:47:32.868Z,22.58
2018-07-11T00:48:33.080Z,22.59
2018-07-11T00:49:33.034Z,22.59
2018-07-11T00:50:32.914Z,22.6
2018-07-11T00:51:33.451Z,22.6
2018-07-11T00:52:32.984Z,22.59
2018-07-11T00:53:33.099Z,22.59
2018-07-11T00:54:33.215Z,22.59
2018-07-11T00:55:33.107Z,22.58
2018-07-11T00:57:02.500Z,22.59
2018-07-11T00:57:32.931Z,22.58
2018-07-11T00:58:33.103Z,22.58
2018-07-11T00:59:32.863Z,22.59
2018-07-11T01:00:33.251Z,22.58
2018-07-11T01:01:32.935Z,22.58
2018-07-11T01:02:32.994Z,22.58
2018-07-11T01:03:32.997Z,22.59
2018-07-11T01:04:32.865Z,22.58
2018-07-11T01:05:32.879Z,22.57
2018-07-11T01:06:33.050Z,22.58
2018-07-11T01:07:33.009Z,22.57
2018-07-11T01:08:33.024Z,22.58
2018-07-11T01:09:32.948Z,22.58
2018-07-11T01:10:32.887Z,22.59
2018-07-11T01:11:33.037Z,22.57
2018-07-11T01:12:33.024Z,22.58
2018-07-11T01:13:33.281Z,22.58
2018-07-11T01:14:32.982Z,22.58
2018-07-11T01:15:33.077Z,22.58
2018-07-11T01:16:32.916Z,22.58
2018-07-11T01:17:32.816Z,22.57
2018-07-11T01:18:33.180Z,22.58
2018-07-11T01:19:32.908Z,22.58
2018-07-11T01:20:33.066Z,22.57
2018-07-11T01:21:32.922Z,22.57
2018-07-11T01:22:32.840Z,22.58
2018-07-11T01:23:33.140Z,22.58
2018-07-11T01:24:33.061Z,22.57
2018-07-11T01:25:33.084Z,22.58
2018-07-11T01:26:32.901Z,22.58
2018-07-11T01:27:32.918Z,22.57
2018-07-11T01:28:32.959Z,22.57
2018-07-11T01:29:32.880Z,22.58
2018-07-11T01:30:32.910Z,22.57
2018-07-11T01:31:33.053Z,22.58
2018-07-11T01:32:33.010Z,22.57
2018-07-11T01:33:33.174Z,22.57
2018-07-11T01:34:32.875Z,22.57
2018-07-11T01:35:32.892Z,22.58
2018-07-11T01:36:33.003Z,22.57
2018-07-11T01:37:32.875Z,22.56
2018-07-11T01:38:32.876Z,22.57
2018-07-11T01:39:32.969Z,22.57
2018-07-11T01:40:32.950Z,22.57
2018-07-11T01:41:32.873Z,22.56
2018-07-11T01:42:32.938Z,22.56
2018-07-11T01:43:32.913Z,22.57
2018-07-11T01:44:32.885Z,22.57
2018-07-11T01:45:33.087Z,22.56
2018-07-11T01:46:32.978Z,22.56
2018-07-11T01:47:33.381Z,22.57
2018-07-11T01:48:32.979Z,22.56
2018-07-11T01:49:32.914Z,22.56
2018-07-11T01:50:33.136Z,22.56
2018-07-11T01:51:32.861Z,22.56
2018-07-11T01:52:33.100Z,22.57
2018-07-11T01:53:32.766Z,22.57
2018-07-11T01:54:32.931Z,22.56
2018-07-11T01:55:32.922Z,22.56
2018-07-11T01:56:32.983Z,22.56
2018-07-11T01:57:33.071Z,22.56
2018-07-11T01:58:32.859Z,22.56
2018-07-11T01:59:32.930Z,22.56
2018-07-11T02:00:33.233Z,22.56
2018-07-11T02:01:32.925Z,22.56
2018-07-11T02:02:33.139Z,22.56
2018-07-11T02:03:32.983Z,22.56
2018-07-11T02:04:32.844Z,22.56
2018-07-11T02:05:33.052Z,22.56
2018-07-11T02:06:33.000Z,22.56
2018-07-11T02:07:33.233Z,22.56
2018-07-11T02:08:33.188Z,22.55
2018-07-11T02:09:32.935Z,22.56
2018-07-11T02:10:32.730Z,22.55
2018-07-11T02:11:32.863Z,22.55
2018-07-11T02:12:33.076Z,22.55
2018-07-11T02:13:33.021Z,22.56
2018-07-11T02:14:33.021Z,22.56
2018-07-11T02:15:32.856Z,22.55
2018-07-11T02:16:33.040Z,22.56
2018-07-11T02:17:32.901Z,22.55
2018-07-11T02:18:32.975Z,22.56
2018-07-11T02:19:33.133Z,22.55
2018-07-11T02:20:32.743Z,22.54
2018-07-11T02:21:33.157Z,22.55
2018-07-11T02:22:33.208Z,22.55
2018-07-11T02:23:32.926Z,22.54
2018-07-11T02:24:33.007Z,22.55
2018-07-11T02:25:33.077Z,22.55
2018-07-11T02:26:32.936Z,22.54
2018-07-11T02:27:32.925Z,22.54
2018-07-11T02:28:32.918Z,22.55
2018-07-11T02:29:32.846Z,22.54
2018-07-11T02:30:32.937Z,22.54
2018-07-11T02:31:32.821Z,22.55
2018-07-11T02:32:32.894Z,22.55
2018-07-11T02:33:32.984Z,22.54
2018-07-11T02:34:32.838Z,22.55
2018-07-11T02:35:33.164Z,22.54
2018-07-11T02:36:33.111Z,22.55
2018-07-11T02:37:32.993Z,22.54
2018-07-11T02:38:32.847Z,22.54
2018-07-11T02:39:33.006Z,22.54
2018-07-11T02:40:32.995Z,22.54
2018-07-11T02:41:32.840Z,22.54
2018-07-11T02:42:33.003Z,22.54
2018-07-11T02:43:33.006Z,22.54
2018-07-11T02:44:32.918Z,22.54
2018-07-11T02:45:32.837Z,22.54
2018-07-11T02:46:33.051Z,22.54
2018-07-11T02:47:32.853Z,22.54
2018-07-11T02:48:33.105Z,22.53
2018-07-11T02:49:32.838Z,22.54
2018-07-11T02:50:32.927Z,22.54
2018-07-11T02:51:32.830Z,22.54
2018-07-11T02:52:32.970Z,22.54
2018-07-11T02:53:33.088Z,22.54
2018-07-11T02:54:32.959Z,22.54
2018-07-11T02:55:33.111Z,22.54
2018-07-11T02:56:32.891Z,22.54
2018-07-11T02:57:32.997Z,22.54
2018-07-11T02:58:33.191Z,22.53
2018-07-11T02:59:32.943Z,22.53
2018-07-11T03:00:33.154Z,22.54
2018-07-11T03:01:33.062Z,22.54
2018-07-11T03:02:32.954Z,22.54
2018-07-11T03:03:33.134Z,22.53
2018-07-11T03:04:33.067Z,22.53
2018-07-11T03:05:32.814Z,22.53
2018-07-11T03:06:33.094Z,22.53
2018-07-11T03:07:32.909Z,22.54
2018-07-11T03:08:32.985Z,22.53
2018-07-11T03:09:33.001Z,22.54
2018-07-11T03:10:32.789Z,22.53
2018-07-11T03:11:33.000Z,22.53
2018-07-11T03:12:32.946Z,22.53
2018-07-11T03:13:33.125Z,22.53
2018-07-11T03:14:32.853Z,22.52
2018-07-11T03:15:32.897Z,22.53
2018-07-11T03:16:33.135Z,22.53
2018-07-11T03:17:33.048Z,22.53
2018-07-11T03:18:32.915Z,22.53
2018-07-11T03:19:33.083Z,22.52
2018-07-11T03:20:33.039Z,22.53
2018-07-11T03:21:32.836Z,22.52
2018-07-11T03:22:32.960Z,22.53
2018-07-11T03:23:32.816Z,22.52
2018-07-11T03:24:32.854Z,22.53
2018-07-11T03:25:33.080Z,22.52
2018-07-11T03:26:32.930Z,22.52
2018-07-11T03:27:33.009Z,22.52
2018-07-11T03:28:32.815Z,22.52
2018-07-11T03:29:32.937Z,22.52
2018-07-11T03:30:32.900Z,22.52
2018-07-11T03:31:32.936Z,22.52
2018-07-11T03:32:32.863Z,22.52
2018-07-11T03:33:32.979Z,22.53
2018-07-11T03:34:32.892Z,22.52
2018-07-11T03:35:32.930Z,22.52
2018-07-11T03:36:33.010Z,22.52
2018-07-11T03:37:33.236Z,22.52
2018-07-11T03:38:32.997Z,22.52
2018-07-11T03:39:32.930Z,22.52
2018-07-11T03:40:33.051Z,22.52
2018-07-11T03:41:32.935Z,22.51
2018-07-11T03:42:33.013Z,22.51
2018-07-11T03:43:32.759Z,22.52
2018-07-11T03:44:33.111Z,22.51
2018-07-11T03:45:33.029Z,22.52
2018-07-11T03:46:32.899Z,22.52
2018-07-11T03:47:32.900Z,22.52
2018-07-11T03:48:32.846Z,22.52
2018-07-11T03:49:33.047Z,22.51
2018-07-11T03:50:32.766Z,22.52
2018-07-11T03:51:33.068Z,22.52
2018-07-11T03:52:32.821Z,22.51
2018-07-11T03:53:32.939Z,22.51
2018-07-11T03:54:32.693Z,22.51
2018-07-11T03:55:32.938Z,22.52
2018-07-11T03:56:33.013Z,22.51
2018-07-11T03:57:32.939Z,22.51
2018-07-11T03:58:33.064Z,22.52
2018-07-11T03:59:33.024Z,22.51
2018-07-11T04:00:32.995Z,22.5
2018-07-11T04:01:32.773Z,22.51
2018-07-11T04:02:32.881Z,22.5
2018-07-11T04:03:32.801Z,22.5
2018-07-11T04:04:32.954Z,22.5
2018-07-11T04:05:33.112Z,22.51
2018-07-11T04:06:32.997Z,22.51
2018-07-11T04:07:33.101Z,22.5
2018-07-11T04:08:32.891Z,22.51
2018-07-11T04:09:33.105Z,22.5
2018-07-11T04:10:32.825Z,22.5
2018-07-11T04:11:33.013Z,22.5
2018-07-11T04:12:32.843Z,22.5
2018-07-11T04:13:32.959Z,22.5
2018-07-11T04:14:32.949Z,22.5
2018-07-11T04:15:33.073Z,22.5
2018-07-11T04:16:33.142Z,22.51
2018-07-11T04:17:32.787Z,22.51
2018-07-11T04:18:33.157Z,22.5
2018-07-11T04:19:32.798Z,22.51
2018-07-11T04:20:33.024Z,22.49
2018-07-11T04:21:33.169Z,22.5
2018-07-11T04:22:32.887Z,22.5
2018-07-11T04:23:32.990Z,22.5
2018-07-11T04:24:32.951Z,22.5
2018-07-11T04:25:33.025Z,22.5
2018-07-11T04:26:32.904Z,22.5
2018-07-11T04:27:33.005Z,22.5
2018-07-11T04:28:32.868Z,22.5
2018-07-11T04:29:32.950Z,22.5
2018-07-11T04:30:33.041Z,22.5
2018-07-11T04:31:32.894Z,22.5
2018-07-11T04:32:33.047Z,22.5
2018-07-11T04:33:33.328Z,22.5
2018-07-11T04:34:32.996Z,22.51
2018-07-11T04:35:33.117Z,22.5
2018-07-11T04:36:32.983Z,22.5
2018-07-11T04:37:32.829Z,22.49
2018-07-11T04:38:32.800Z,22.5
2018-07-11T04:39:32.808Z,22.5
2018-07-11T04:40:33.127Z,22.5
2018-07-11T04:41:32.859Z,22.51
2018-07-11T04:42:33.058Z,22.49
2018-07-11T04:43:33.041Z,22.5
2018-07-11T04:44:32.939Z,22.49
2018-07-11T04:45:32.981Z,22.5
2018-07-11T04:46:32.717Z,22.5
2018-07-11T04:47:32.891Z,22.5
2018-07-11T04:48:33.271Z,22.49
2018-07-11T04:49:33.102Z,22.49
2018-07-11T04:50:33.091Z,22.48
2018-07-11T04:51:32.925Z,22.5
2018-07-11T04:52:33.081Z,22.49
2018-07-11T04:53:33.138Z,22.49
2018-07-11T04:54:32.999Z,22.49
2018-07-11T04:55:32.767Z,22.49
2018-07-11T04:56:32.979Z,22.49
2018-07-11T04:57:32.935Z,22.49
2018-07-11T04:58:33.152Z,22.49
2018-07-11T04:59:32.957Z,22.48
2018-07-11T05:00:33.036Z,22.5
2018-07-11T05:01:32.766Z,22.5
2018-07-11T05:02:32.878Z,22.5
2018-07-11T05:03:32.995Z,22.49
2018-07-11T05:04:32.804Z,22.49
2018-07-11T05:05:32.972Z,22.5
2018-07-11T05:06:33.017Z,22.49
2018-07-11T05:07:32.986Z,22.49
2018-07-11T05:08:32.882Z,22.49
2018-07-11T05:09:32.844Z,22.48
2018-07-11T05:10:32.994Z,22.49
2018-07-11T05:11:32.869Z,22.49
2018-07-11T05:12:32.869Z,22.49
2018-07-11T05:13:32.773Z,22.49
2018-07-11T05:14:32.895Z,22.47
2018-07-11T05:15:33.000Z,22.48
2018-07-11T05:16:33.087Z,22.48
2018-07-11T05:17:32.888Z,22.48
2018-07-11T05:18:32.908Z,22.49
2018-07-11T05:19:32.910Z,22.48
2018-07-11T05:20:32.931Z,22.49
2018-07-11T05:21:32.831Z,22.48
2018-07-11T05:22:32.744Z,22.49
2018-07-11T05:23:32.884Z,22.48
2018-07-11T05:24:32.820Z,22.48
2018-07-11T05:25:32.961Z,22.48
2018-07-11T05:26:33.050Z,22.49
2018-07-11T05:27:33.377Z,22.49
2018-07-11T05:28:32.962Z,22.48
2018-07-11T05:29:33.003Z,22.48
2018-07-11T05:30:32.924Z,22.48
2018-07-11T05:31:32.857Z,22.48
2018-07-11T05:32:32.957Z,22.49
2018-07-11T05:33:33.234Z,22.49
2018-07-11T05:34:32.882Z,22.49
2018-07-11T05:35:33.097Z,22.48
2018-07-11T05:36:32.947Z,22.47
2018-07-11T05:37:32.853Z,22.47
2018-07-11T05:38:32.913Z,22.48
2018-07-11T05:39:32.892Z,22.47
2018-07-11T05:40:32.814Z,22.48
2018-07-11T05:41:33.071Z,22.48
2018-07-11T05:42:32.752Z,22.48
2018-07-11T05:43:33.062Z,22.48
2018-07-11T05:44:32.827Z,22.48
2018-07-11T05:45:32.972Z,22.48
2018-07-11T05:46:33.094Z,22.49
2018-07-11T05:47:32.958Z,22.48
2018-07-11T05:48:32.808Z,22.48
2018-07-11T05:49:32.737Z,22.48
2018-07-11T05:50:33.021Z,22.48
2018-07-11T05:51:32.947Z,22.48
2018-07-11T05:52:33.116Z,22.49
2018-07-11T05:53:33.010Z,22.47
2018-07-11T05:54:32.965Z,22.48
2018-07-11T05:55:33.054Z,22.48
2018-07-11T05:56:32.995Z,22.47
2018-07-11T05:57:32.867Z,22.48
2018-07-11T05:58:42.910Z,22.47
2018-07-11T05:59:32.937Z,22.47
2018-07-11T06:00:32.985Z,22.47
2018-07-11T06:01:32.827Z,22.47
2018-07-11T06:02:32.891Z,22.47
2018-07-11T06:03:32.966Z,22.48
2018-07-11T06:04:33.008Z,22.48
2018-07-11T06:05:32.993Z,22.47
2018-07-11T06:06:32.883Z,22.47
2018-07-11T06:07:33.069Z,22.48
2018-07-11T06:08:32.933Z,22.47
2018-07-11T06:09:32.748Z,22.46
2018-07-11T06:10:32.806Z,22.47
2018-07-11T06:11:32.980Z,22.47
2018-07-11T06:12:33.950Z,22.48
2018-07-11T06:13:32.819Z,22.47
2018-07-11T06:14:32.819Z,22.47
2018-07-11T06:15:32.948Z,22.47
2018-07-11T06:16:32.872Z,22.47
2018-07-11T06:17:32.839Z,22.46
2018-07-11T06:18:33.029Z,22.47
2018-07-11T06:19:33.355Z,22.47
2018-07-11T06:20:32.994Z,22.46
2018-07-11T06:21:32.892Z,22.47
2018-07-11T06:22:32.966Z,22.47
2018-07-11T06:23:32.753Z,22.46
2018-07-11T06:24:34.070Z,22.47
2018-07-11T06:25:32.928Z,22.47
2018-07-11T06:26:32.852Z,22.46
2018-07-11T06:27:32.939Z,22.46
2018-07-11T06:28:32.777Z,22.46
2018-07-11T06:29:32.924Z,22.46
2018-07-11T06:30:32.963Z,22.46
2018-07-11T06:31:32.941Z,22.46
2018-07-11T06:32:32.722Z,22.47
2018-07-11T06:33:34.507Z,22.47
2018-07-11T06:34:33.324Z,22.47
2018-07-11T06:35:35.591Z,22.46
2018-07-11T06:36:32.943Z,22.46
2018-07-11T06:37:32.844Z,22.47
2018-07-11T06:38:33.052Z,22.45
2018-07-11T06:39:32.733Z,22.46
2018-07-11T06:40:32.926Z,22.46
2018-07-11T06:41:32.880Z,22.46
2018-07-11T06:42:32.863Z,22.46
2018-07-11T06:43:32.908Z,22.46
2018-07-11T06:44:33.226Z,22.45
2018-07-11T06:45:33.114Z,22.47
2018-07-11T06:46:32.795Z,22.46
2018-07-11T06:47:32.870Z,22.46
2018-07-11T06:48:33.121Z,22.46
2018-07-11T06:49:32.894Z,22.46
2018-07-11T06:50:43.048Z,22.46
2018-07-11T06:51:32.940Z,22.46
2018-07-11T06:52:32.878Z,22.46
2018-07-11T06:53:33.014Z,22.46
2018-07-11T06:54:33.019Z,22.46
2018-07-11T06:55:32.942Z,22.45
2018-07-11T06:56:32.884Z,22.46
2018-07-11T06:57:32.985Z,22.45
2018-07-11T06:58:33.075Z,22.45
2018-07-11T06:59:32.736Z,22.45
2018-07-11T07:00:32.826Z,22.45
2018-07-11T07:01:32.808Z,22.45
2018-07-11T07:02:32.984Z,22.46
2018-07-11T07:03:33.079Z,22.45
2018-07-11T07:04:32.793Z,22.45
2018-07-11T07:05:32.921Z,22.45
2018-07-11T07:06:32.705Z,22.45
2018-07-11T07:07:32.899Z,22.43
2018-07-11T07:08:32.911Z,22.44
2018-07-11T07:09:33.067Z,22.45
2018-07-11T07:10:32.821Z,22.47
2018-07-11T07:11:32.878Z,22.48
2018-07-11T07:12:32.798Z,22.48
2018-07-11T07:13:32.984Z,22.49
2018-07-11T07:14:32.916Z,22.5
2018-07-11T07:15:32.735Z,22.51
2018-07-11T07:16:33.020Z,22.5
2018-07-11T07:17:33.226Z,22.54
2018-07-11T07:18:33.616Z,22.54
2018-07-11T07:19:33.494Z,22.54
2018-07-11T07:20:33.608Z,22.56
2018-07-11T07:21:33.553Z,22.56
2018-07-11T07:22:33.831Z,22.55
2018-07-11T07:23:33.458Z,22.55
2018-07-11T07:24:33.420Z,22.56
2018-07-11T07:25:34.491Z,22.57
2018-07-11T07:26:33.557Z,22.54
2018-07-11T07:27:33.580Z,22.53
2018-07-11T07:28:33.437Z,22.54
2018-07-11T07:29:33.620Z,22.52
2018-07-11T07:30:32.928Z,22.52
2018-07-11T07:31:33.585Z,22.52
2018-07-11T07:32:33.542Z,22.52
2018-07-11T07:33:33.362Z,22.52
2018-07-11T07:34:34.753Z,22.51
2018-07-11T07:35:33.475Z,22.51
2018-07-11T07:36:34.362Z,22.51
2018-07-11T07:37:34.386Z,22.51
2018-07-11T07:38:33.344Z,22.5
2018-07-11T07:39:34.790Z,22.5
2018-07-11T07:40:33.581Z,22.49
2018-07-11T07:41:33.613Z,22.49
2018-07-11T07:43:02.927Z,22.49
2018-07-11T07:43:33.287Z,22.49
2018-07-11T07:44:33.445Z,22.5
2018-07-11T07:45:33.269Z,22.5
2018-07-11T07:46:33.597Z,22.49
2018-07-11T07:47:33.726Z,22.48
2018-07-11T07:48:33.645Z,22.49
2018-07-11T07:49:33.625Z,22.49
2018-07-11T07:50:33.378Z,22.48
2018-07-11T07:51:33.415Z,22.48
2018-07-11T07:52:33.343Z,22.49
2018-07-11T07:53:33.566Z,22.49
2018-07-11T07:54:33.398Z,22.48
2018-07-11T07:55:33.651Z,22.47
2018-07-11T07:56:33.338Z,22.49
2018-07-11T07:57:34.419Z,22.47
2018-07-11T07:58:34.856Z,22.48
2018-07-11T07:59:34.755Z,22.48
2018-07-11T08:00:33.217Z,22.47
2018-07-11T08:01:33.665Z,22.48
2018-07-11T08:02:33.404Z,22.49
2018-07-11T08:03:34.102Z,22.48
2018-07-11T08:04:33.458Z,22.48
2018-07-11T08:05:33.783Z,22.47
2018-07-11T08:06:34.977Z,22.48
2018-07-11T08:07:33.407Z,22.48
2018-07-11T08:08:33.480Z,22.48
2018-07-11T08:09:33.267Z,22.47
2018-07-11T08:10:33.652Z,22.47
2018-07-11T08:11:34.449Z,22.47
2018-07-11T08:12:33.073Z,22.47
2018-07-11T08:13:33.610Z,22.48
2018-07-11T08:14:33.867Z,22.48
2018-07-11T08:15:34.546Z,22.47
2018-07-11T08:16:34.964Z,22.48
2018-07-11T08:17:32.954Z,22.48
2018-07-11T08:18:33.579Z,22.47
2018-07-11T08:19:33.908Z,22.47
2018-07-11T08:20:32.745Z,22.48
2018-07-11T08:21:32.870Z,22.48
2018-07-11T08:22:32.701Z,22.47
2018-07-11T08:23:32.730Z,22.47
2018-07-11T08:24:33.354Z,22.48
2018-07-11T08:25:33.821Z,22.45
2018-07-11T08:26:32.800Z,22.46
2018-07-11T08:27:32.844Z,22.44
2018-07-11T08:28:32.767Z,22.43
2018-07-11T08:29:33.773Z,22.45
2018-07-11T08:30:32.832Z,22.46
2018-07-11T08:31:33.928Z,22.45
2018-07-11T08:32:32.721Z,22.45
2018-07-11T08:33:33.820Z,22.44
2018-07-11T08:34:32.972Z,22.45
2018-07-11T08:35:33.413Z,22.45
2018-07-11T08:36:33.769Z,22.45
2018-07-11T08:37:33.212Z,22.45
2018-07-11T08:38:32.773Z,22.46
2018-07-11T08:39:33.117Z,22.45
2018-07-11T08:40:33.635Z,22.44
2018-07-11T08:41:33.972Z,22.46
2018-07-11T08:42:33.377Z,22.46
2018-07-11T08:43:32.712Z,22.45
2018-07-11T08:44:32.818Z,22.46
2018-07-11T08:45:32.910Z,22.45
2018-07-11T08:46:32.824Z,22.45
2018-07-11T08:47:32.819Z,22.46
2018-07-11T08:48:32.701Z,22.46
2018-07-11T08:49:32.933Z,22.46
2018-07-11T08:50:32.810Z,22.47
2018-07-11T08:51:32.807Z,22.47
2018-07-11T08:52:32.836Z,22.47
2018-07-11T08:53:32.954Z,22.47
2018-07-11T08:54:32.775Z,22.46
2018-07-11T08:55:32.703Z,22.46
2018-07-11T08:56:32.783Z,22.46
2018-07-11T08:57:32.736Z,22.45
2018-07-11T08:58:32.725Z,22.46
2018-07-11T08:59:32.811Z,22.47
2018-07-11T09:00:32.737Z,22.46
2018-07-11T09:01:32.823Z,22.47
2018-07-11T09:02:32.943Z,22.45
2018-07-11T09:03:32.933Z,22.45
2018-07-11T09:04:32.709Z,22.45
2018-07-11T09:05:33.737Z,22.45
2018-07-11T09:06:32.718Z,22.44
2018-07-11T09:07:32.930Z,22.44
2018-07-11T09:08:32.903Z,22.45
2018-07-11T09:09:32.894Z,22.44
2018-07-11T09:10:33.709Z,22.44
2018-07-11T09:11:34.010Z,22.45
2018-07-11T09:12:32.898Z,22.44
2018-07-11T09:13:32.915Z,22.44
2018-07-11T09:14:32.808Z,22.44
2018-07-11T09:15:32.634Z,22.43
2018-07-11T09:16:32.899Z,22.44
2018-07-11T09:17:33.265Z,22.45
2018-07-11T09:18:32.821Z,22.44
2018-07-11T09:19:35.449Z,22.45
2018-07-11T09:20:32.888Z,22.44
2018-07-11T09:21:32.754Z,22.44
2018-07-11T09:22:32.911Z,22.43
2018-07-11T09:23:32.726Z,22.44
2018-07-11T09:24:32.882Z,22.44
2018-07-11T09:25:33.122Z,22.44
2018-07-11T09:26:32.840Z,22.44
2018-07-11T09:27:32.935Z,22.45
2018-07-11T09:28:32.899Z,22.44
2018-07-11T09:29:32.801Z,22.45
2018-07-11T09:30:33.174Z,22.44
2018-07-11T09:31:32.774Z,22.44
2018-07-11T09:32:32.870Z,22.44
2018-07-11T09:33:35.266Z,22.45
2018-07-11T09:34:32.741Z,22.44
2018-07-11T09:35:32.945Z,22.44
2018-07-11T09:36:32.870Z,22.45
2018-07-11T09:37:32.955Z,22.45
2018-07-11T09:38:32.833Z,22.45
2018-07-11T09:39:32.757Z,22.45
2018-07-11T09:40:32.797Z,22.44
2018-07-11T09:41:32.791Z,22.44
2018-07-11T09:42:32.882Z,22.45
2018-07-11T09:43:32.875Z,22.45
2018-07-11T09:44:32.909Z,22.44
2018-07-11T09:45:33.029Z,22.46
2018-07-11T09:46:33.002Z,22.45
2018-07-11T09:47:32.824Z,22.44
2018-07-11T09:48:32.989Z,22.45
2018-07-11T09:49:33.149Z,22.45
2018-07-11T09:50:32.801Z,22.45
2018-07-11T09:51:34.862Z,22.44
2018-07-11T09:52:32.741Z,22.45
2018-07-11T09:53:35.178Z,22.44
2018-07-11T09:54:32.842Z,22.43
2018-07-11T09:55:32.788Z,22.43
2018-07-11T09:56:35.039Z,22.43
2018-07-11T09:57:32.878Z,22.44
2018-07-11T09:58:32.756Z,22.43
2018-07-11T09:59:32.808Z,22.44
2018-07-11T10:00:32.760Z,22.44
2018-07-11T10:01:32.902Z,22.44
2018-07-11T10:02:32.912Z,22.44
2018-07-11T10:03:32.832Z,22.44
2018-07-11T10:04:32.749Z,22.44
2018-07-11T10:05:32.834Z,22.44
2018-07-11T10:06:32.885Z,22.45
2018-07-11T10:07:32.953Z,22.46
2018-07-11T10:08:32.848Z,22.44
2018-07-11T10:09:42.831Z,22.44
2018-07-11T10:10:32.922Z,22.43
2018-07-11T10:11:35.194Z,22.45
2018-07-11T10:12:35.456Z,22.44
2018-07-11T10:13:32.903Z,22.44
2018-07-11T10:14:32.927Z,22.45
2018-07-11T10:15:32.812Z,22.44
2018-07-11T10:16:32.935Z,22.45
2018-07-11T10:17:32.972Z,22.44
2018-07-11T10:18:34.421Z,22.44
2018-07-11T10:19:33.602Z,22.44
2018-07-11T10:20:33.507Z,22.44
2018-07-11T10:21:33.595Z,22.43
2018-07-11T10:22:33.628Z,22.43
2018-07-11T10:23:33.281Z,22.43
2018-07-11T10:24:33.649Z,22.45
2018-07-11T10:25:33.452Z,22.44
2018-07-11T10:26:34.520Z,22.43
2018-07-11T10:27:34.829Z,22.43
2018-07-11T10:28:33.556Z,22.45
2018-07-11T10:29:33.382Z,22.44
2018-07-11T10:30:33.409Z,22.44
2018-07-11T10:31:34.484Z,22.44
2018-07-11T10:32:33.403Z,22.45
2018-07-11T10:33:33.380Z,22.45
2018-07-11T10:34:33.347Z,22.43
2018-07-11T10:35:33.517Z,22.42
2018-07-11T10:36:33.523Z,22.43
2018-07-11T10:37:34.716Z,22.44
2018-07-11T10:38:33.417Z,22.43
2018-07-11T10:39:33.460Z,22.44
2018-07-11T10:40:33.669Z,22.43
2018-07-11T10:41:33.573Z,22.43
2018-07-11T10:42:33.563Z,22.43
2018-07-11T10:43:34.119Z,22.44
2018-07-11T10:44:33.507Z,22.43
2018-07-11T10:45:33.426Z,22.43
2018-07-11T10:46:33.492Z,22.43
2018-07-11T10:47:33.384Z,22.43
2018-07-11T10:48:33.633Z,22.43
2018-07-11T10:49:33.591Z,22.43
2018-07-11T10:50:34.626Z,22.43
2018-07-11T10:51:34.762Z,22.42
2018-07-11T10:52:33.589Z,22.42
2018-07-11T10:53:33.441Z,22.43
2018-07-11T10:54:33.120Z,22.42
2018-07-11T10:55:33.493Z,22.43
2018-07-11T10:56:34.505Z,22.43
2018-07-11T10:57:33.266Z,22.44
2018-07-11T10:58:33.525Z,22.43
2018-07-11T10:59:33.546Z,22.42
2018-07-11T11:00:36.659Z,22.42
2018-07-11T11:01:33.781Z,22.44
2018-07-11T11:02:34.938Z,22.42
2018-07-11T11:03:33.134Z,22.43
2018-07-11T11:04:34.690Z,22.43
2018-07-11T11:05:33.157Z,22.44
2018-07-11T11:06:33.464Z,22.42
2018-07-11T11:07:33.411Z,22.42
2018-07-11T11:08:33.641Z,22.42
2018-07-11T11:09:33.451Z,22.42
2018-07-11T11:10:34.232Z,22.41
2018-07-11T11:11:33.538Z,22.42
2018-07-11T11:12:33.468Z,22.42
2018-07-11T11:13:33.612Z,22.42
2018-07-11T11:14:33.233Z,22.42
2018-07-11T11:15:33.472Z,22.41
2018-07-11T11:16:33.356Z,22.42
2018-07-11T11:17:32.787Z,22.43
2018-07-11T11:18:32.931Z,22.44
2018-07-11T11:19:32.906Z,22.42
2018-07-11T11:20:32.905Z,22.43
2018-07-11T11:21:32.701Z,22.43
2018-07-11T11:22:32.708Z,22.43
2018-07-11T11:23:32.906Z,22.43
2018-07-11T11:24:32.685Z,22.42
2018-07-11T11:25:32.801Z,22.42
2018-07-11T11:26:32.766Z,22.43
2018-07-11T11:27:32.752Z,22.42
2018-07-11T11:28:32.839Z,22.41
2018-07-11T11:29:32.844Z,22.43
2018-07-11T11:30:32.583Z,22.42
2018-07-11T11:31:32.676Z,22.42
2018-07-11T11:32:32.857Z,22.43
2018-07-11T11:33:32.896Z,22.42
2018-07-11T11:34:32.834Z,22.42
2018-07-11T11:35:32.845Z,22.42
2018-07-11T11:36:32.666Z,22.42
2018-07-11T11:37:32.746Z,22.42
2018-07-11T11:38:32.725Z,22.43
2018-07-11T11:39:32.689Z,22.42
2018-07-11T11:40:32.846Z,22.41
2018-07-11T11:41:32.980Z,22.43
2018-07-11T11:42:33.290Z,22.43
2018-07-11T11:43:32.861Z,22.42
2018-07-11T11:44:32.859Z,22.41
2018-07-11T11:45:32.948Z,22.42
2018-07-11T11:46:32.844Z,22.42
2018-07-11T11:47:32.905Z,22.42
2018-07-11T11:48:32.681Z,22.42
2018-07-11T11:49:32.832Z,22.42
2018-07-11T11:50:32.910Z,22.42
2018-07-11T11:51:32.857Z,22.42
2018-07-11T11:52:32.773Z,22.42
2018-07-11T11:53:32.660Z,22.42
2018-07-11T11:54:32.650Z,22.43
2018-07-11T11:55:32.724Z,22.42
2018-07-11T11:56:32.781Z,22.42
2018-07-11T11:57:32.602Z,22.43
2018-07-11T11:58:32.915Z,22.42
2018-07-11T11:59:32.851Z,22.43
2018-07-11T12:00:32.674Z,22.41
2018-07-11T12:01:32.737Z,22.42
2018-07-11T12:02:33.004Z,22.42
2018-07-11T12:03:32.855Z,22.41
2018-07-11T12:04:32.878Z,22.42
2018-07-11T12:05:32.882Z,22.43
2018-07-11T12:06:32.699Z,22.43
2018-07-11T12:07:32.713Z,22.41
2018-07-11T12:08:32.662Z,22.42
2018-07-11T12:09:32.807Z,22.42
2018-07-11T12:10:32.771Z,22.43
2018-07-11T12:11:32.964Z,22.42
2018-07-11T12:12:32.837Z,22.42
2018-07-11T12:13:32.828Z,22.43
2018-07-11T12:14:32.853Z,22.43
2018-07-11T12:15:32.850Z,22.42
2018-07-11T12:16:32.819Z,22.42
2018-07-11T12:17:32.613Z,22.41
2018-07-11T12:18:32.792Z,22.42
2018-07-11T12:19:32.922Z,22.42
2018-07-11T12:20:32.792Z,22.42
2018-07-11T12:21:33.085Z,22.42
2018-07-11T12:22:32.797Z,22.42
2018-07-11T12:23:32.856Z,22.41
2018-07-11T12:24:32.818Z,22.42
2018-07-11T12:25:32.701Z,22.41
2018-07-11T12:26:32.638Z,22.42
2018-07-11T12:27:32.859Z,22.42
2018-07-11T12:28:32.825Z,22.42
2018-07-11T12:29:32.822Z,22.41
2018-07-11T12:30:32.911Z,22.42
2018-07-11T12:31:32.685Z,22.42
2018-07-11T12:32:32.757Z,22.42
2018-07-11T12:33:32.938Z,22.41
2018-07-11T12:34:32.725Z,22.41
2018-07-11T12:35:32.671Z,22.41
2018-07-11T12:36:32.838Z,22.42
2018-07-11T12:37:32.754Z,22.42
2018-07-11T12:38:32.708Z,22.42
2018-07-11T12:39:32.787Z,22.41
2018-07-11T12:40:32.811Z,22.42
2018-07-11T12:41:32.903Z,22.42
2018-07-11T12:42:32.864Z,22.41
2018-07-11T12:43:32.941Z,22.4
2018-07-11T12:44:32.685Z,22.41
2018-07-11T12:45:32.898Z,22.41
2018-07-11T12:46:32.913Z,22.41
2018-07-11T12:47:32.873Z,22.41
2018-07-11T12:48:32.777Z,22.4
2018-07-11T12:49:32.737Z,22.4
2018-07-11T12:50:33.345Z,22.41
2018-07-11T12:51:32.893Z,22.4
2018-07-11T12:52:32.666Z,22.41
2018-07-11T12:53:32.677Z,22.41
2018-07-11T12:54:32.718Z,22.4